Calcoene, Brazil
Current Conditions -  °F | °C
As of 7:00 PM on Monday 22 Dec 2014 (Local Time) from SBMQ Reporting Station
Few Clouds Few Clouds  
Wind Chill: 84°   Ceiling: Unl
Heat Index: 90°   Visibility: 6mi
Dew Point: 72°   Wind: 14mph
Humidity: 66%   Direction: 50°NE
Pressure: 29.8"   Gusts: NA
Location:  2.5°N, 50.95°W
Report Text: SBMQ 222200Z 05012KT 9999 FEW023 29/22 Q1009
Loading
Personal Weather Stations






























Interactive Weather Map New forecast layout! Learn more

10-Day Weather Forecast

Advertisements
Track Severe Weather on mobile